Time;durP1;ratioP1;P1;durP2;ratioP2;P2;SDS_P1;SDS_P2;PMS_P1;PMS_P2;Temp;Humidity;BMP_temperature;BMP_pressure;BME280_temperature;BME280_humidity;BME280_pressure;Samples;Min_cycle;Max_cycle;Signal;HPM_P1;HPM_P2
2022/08/08 00:01:53;;;;;;;3.95;3.00;;;;;;;;;;5055840;28;20108;-82
2022/08/08 00:04:54;;;;;;;4.13;3.08;;;;;;;;;;5037654;28;20032;-82
2022/08/08 00:07:42;;;;;;;6.32;3.30;;;;;;;;;;5037034;28;20049;-82
2022/08/08 00:10:17;;;;;;;3.75;3.20;;;;;;;;;;5054033;28;20044;-83
2022/08/08 00:13:01;;;;;;;4.25;3.10;;;;;;;;;;5055601;28;20043;-83
2022/08/08 00:15:32;;;;;;;3.90;3.10;;;;;;;;;;5037113;28;20036;-83
2022/08/08 00:18:09;;;;;;;5.57;2.83;;;;;;;;;;5055573;28;20033;-83
2022/08/08 00:20:43;;;;;;;5.18;3.00;;;;;;;;;;5055781;28;20064;-82
2022/08/08 00:23:37;;;;;;;6.35;3.40;;;;;;;;;;5021312;28;20067;-83
2022/08/08 00:26:07;;;;;;;4.68;3.15;;;;;;;;;;5055361;28;20037;-82
2022/08/08 00:28:45;;;;;;;4.25;2.85;;;;;;;;;;5055469;28;20033;-82
2022/08/08 00:31:20;;;;;;;3.88;3.30;;;;;;;;;;5055697;28;20069;-82
2022/08/08 00:35:09;;;;;;;3.10;2.65;;;;;;;;;;5020954;28;20123;-82
2022/08/08 00:36:50;;;;;;;3.97;3.20;;;;;;;;;;5037132;28;20043;-82
2022/08/08 00:39:22;;;;;;;3.42;2.90;;;;;;;;;;5036880;28;20037;-82
2022/08/08 00:42:21;;;;;;;3.38;3.05;;;;;;;;;;5037585;28;20037;-82
2022/08/08 00:45:02;;;;;;;4.18;2.97;;;;;;;;;;5036958;28;20037;-81
2022/08/08 00:48:08;;;;;;;4.57;3.10;;;;;;;;;;5055206;28;20391;-82
2022/08/08 00:51:07;;;;;;;4.75;3.38;;;;;;;;;;5055378;28;20035;-81
2022/08/08 00:53:46;;;;;;;5.30;3.45;;;;;;;;;;5053632;28;20448;-81
2022/08/08 00:56:36;;;;;;;4.00;3.40;;;;;;;;;;5052996;28;20048;-80
2022/08/08 00:59:14;;;;;;;3.75;2.97;;;;;;;;;;5035666;28;20082;-81
2022/08/08 01:02:02;;;;;;;4.65;2.70;;;;;;;;;;5035819;28;20043;-81
2022/08/08 01:04:53;;;;;;;6.40;3.10;;;;;;;;;;5019579;28;20513;-82
2022/08/08 01:07:36;;;;;;;4.30;3.15;;;;;;;;;;5035562;28;20072;-81
2022/08/08 01:10:31;;;;;;;6.22;3.20;;;;;;;;;;5034035;28;20036;-81
2022/08/08 01:13:46;;;;;;;5.60;3.10;;;;;;;;;;5035828;28;20041;-80
2022/08/08 01:16:44;;;;;;;3.38;2.92;;;;;;;;;;5018886;28;20037;-80
2022/08/08 01:19:30;;;;;;;6.47;2.90;;;;;;;;;;5035910;28;20043;-80
2022/08/08 01:22:22;;;;;;;3.80;3.28;;;;;;;;;;5019611;28;20399;-80
2022/08/08 01:24:47;;;;;;;3.95;3.25;;;;;;;;;;5035100;28;20028;-79
2022/08/08 01:27:37;;;;;;;5.00;3.00;;;;;;;;;;5038653;28;20025;-80
2022/08/08 01:30:25;;;;;;;3.40;2.95;;;;;;;;;;5039535;28;20179;-81
2022/08/08 01:33:15;;;;;;;3.40;2.80;;;;;;;;;;5039502;28;20033;-81
2022/08/08 01:36:22;;;;;;;4.75;3.20;;;;;;;;;;5038691;28;20398;-80
2022/08/08 01:39:05;;;;;;;4.25;3.00;;;;;;;;;;5039352;28;20040;-80
2022/08/08 01:41:30;;;;;;;4.80;2.90;;;;;;;;;;5039284;28;20116;-80
2022/08/08 01:44:16;;;;;;;4.25;2.80;;;;;;;;;;5038496;28;20056;-80
2022/08/08 01:46:51;;;;;;;3.22;2.53;;;;;;;;;;5038967;28;20033;-80
2022/08/08 01:49:43;;;;;;;3.70;2.40;;;;;;;;;;5039184;28;20039;-80
2022/08/08 01:52:40;;;;;;;3.53;2.85;;;;;;;;;;5039074;28;20032;-80
2022/08/08 01:55:45;;;;;;;3.65;2.67;;;;;;;;;;5038377;28;20025;-80
2022/08/08 01:58:25;;;;;;;3.97;3.00;;;;;;;;;;5018682;28;20056;-80
2022/08/08 02:00:56;;;;;;;3.53;3.15;;;;;;;;;;5038576;28;20178;-80
2022/08/08 02:03:29;;;;;;;3.55;2.97;;;;;;;;;;5039141;28;20040;-80
2022/08/08 02:06:10;;;;;;;3.92;2.85;;;;;;;;;;5038165;28;20044;-80
2022/08/08 02:09:00;;;;;;;4.10;2.78;;;;;;;;;;5037162;28;20033;-79
2022/08/08 02:11:43;;;;;;;3.88;2.95;;;;;;;;;;5038416;28;20094;-81
2022/08/08 02:14:46;;;;;;;5.47;3.22;;;;;;;;;;5038056;28;20505;-80
2022/08/08 02:17:37;;;;;;;3.80;2.92;;;;;;;;;;5038141;28;20190;-80
2022/08/08 02:20:37;;;;;;;3.20;2.90;;;;;;;;;;5038662;28;20068;-81
2022/08/08 02:23:31;;;;;;;5.72;2.75;;;;;;;;;;5021978;28;20497;-80
2022/08/08 02:26:15;;;;;;;3.58;2.92;;;;;;;;;;5037617;28;20037;-82
2022/08/08 02:29:19;;;;;;;7.05;3.10;;;;;;;;;;5039035;28;20099;-81
2022/08/08 02:32:03;;;;;;;4.00;2.97;;;;;;;;;;5021163;28;20055;-81
2022/08/08 02:34:43;;;;;;;3.40;3.10;;;;;;;;;;5038390;28;20033;-82
2022/08/08 02:37:46;;;;;;;4.30;3.17;;;;;;;;;;5021911;28;20033;-80
2022/08/08 02:40:37;;;;;;;4.05;3.10;;;;;;;;;;5038202;28;20037;-81
2022/08/08 02:43:13;;;;;;;4.18;2.95;;;;;;;;;;5021504;28;20056;-81
2022/08/08 02:45:51;;;;;;;4.07;3.05;;;;;;;;;;5037700;28;20029;-81
2022/08/08 02:48:42;;;;;;;4.63;3.00;;;;;;;;;;5038448;28;20134;-81
2022/08/08 02:51:13;;;;;;;4.68;3.15;;;;;;;;;;5037892;28;20044;-81
2022/08/08 02:53:56;;;;;;;5.30;3.10;;;;;;;;;;5021678;28;20048;-80
2022/08/08 02:56:53;;;;;;;3.42;3.10;;;;;;;;;;5037987;28;20424;-81
2022/08/08 02:59:47;;;;;;;4.65;2.78;;;;;;;;;;5037934;28;20120;-80
2022/08/08 03:03:14;;;;;;;3.90;2.95;;;;;;;;;;5055910;28;20036;-81
2022/08/08 03:06:17;;;;;;;3.28;2.90;;;;;;;;;;5010276;28;20120;-81
2022/08/08 03:08:42;;;;;;;4.22;2.90;;;;;;;;;;5052722;28;20397;-81
2022/08/08 03:11:35;;;;;;;3.85;3.00;;;;;;;;;;5021412;28;20037;-80
2022/08/08 03:14:28;;;;;;;4.65;3.05;;;;;;;;;;5037343;28;20497;-81
2022/08/08 03:16:59;;;;;;;3.88;2.80;;;;;;;;;;5039585;28;20048;-81
2022/08/08 03:20:05;;;;;;;4.85;3.08;;;;;;;;;;5038899;28;20468;-81
2022/08/08 03:22:43;;;;;;;3.33;2.85;;;;;;;;;;5037473;28;20059;-80
2022/08/08 03:25:09;;;;;;;3.05;2.70;;;;;;;;;;5036578;28;20025;-80
2022/08/08 03:27:44;;;;;;;6.53;2.90;;;;;;;;;;5037264;28;20091;-81
2022/08/08 03:30:12;;;;;;;4.40;2.80;;;;;;;;;;5020764;28;20112;-81
2022/08/08 03:35:26;;;;;;;4.53;3.00;;;;;;;;;;5036118;28;20036;-81
2022/08/08 03:37:53;;;;;;;5.57;2.90;;;;;;;;;;5036839;28;20170;-81
2022/08/08 03:40:21;;;;;;;4.45;2.95;;;;;;;;;;5054878;28;20028;-80
2022/08/08 03:42:48;;;;;;;4.88;3.03;;;;;;;;;;5036805;28;20029;-81
2022/08/08 03:45:22;;;;;;;3.47;2.70;;;;;;;;;;5036390;28;20025;-80
2022/08/08 03:48:03;;;;;;;3.65;2.60;;;;;;;;;;5036952;28;20037;-81
2022/08/08 03:50:32;;;;;;;3.55;2.88;;;;;;;;;;5036523;28;20127;-81
2022/08/08 03:53:19;;;;;;;3.75;2.75;;;;;;;;;;5036917;28;20040;-81
2022/08/08 03:55:48;;;;;;;3.30;2.88;;;;;;;;;;5035999;28;20555;-81
2022/08/08 03:58:22;;;;;;;4.85;2.92;;;;;;;;;;5037009;28;20029;-81
2022/08/08 04:00:55;;;;;;;5.10;3.10;;;;;;;;;;5036733;28;20048;-81
2022/08/08 04:03:23;;;;;;;3.55;2.92;;;;;;;;;;5036543;28;20037;-81
2022/08/08 04:05:49;;;;;;;6.20;3.17;;;;;;;;;;5036046;28;20024;-81
2022/08/08 04:08:23;;;;;;;5.05;3.15;;;;;;;;;;5036381;28;20047;-80
2022/08/08 04:10:51;;;;;;;4.90;3.22;;;;;;;;;;5035188;28;20029;-80
2022/08/08 04:13:19;;;;;;;3.90;2.90;;;;;;;;;;5036709;28;20037;-80
2022/08/08 04:15:53;;;;;;;7.28;3.00;;;;;;;;;;5036478;28;20032;-82
2022/08/08 04:18:18;;;;;;;3.97;3.17;;;;;;;;;;5036502;28;20133;-81
2022/08/08 04:20:44;;;;;;;6.70;3.40;;;;;;;;;;5037186;28;20033;-81
2022/08/08 04:23:10;;;;;;;4.03;3.30;;;;;;;;;;5036434;28;20039;-82
2022/08/08 04:25:35;;;;;;;5.90;3.35;;;;;;;;;;5019335;28;20124;-83
2022/08/08 04:28:01;;;;;;;3.90;3.40;;;;;;;;;;5054335;28;20124;-82
2022/08/08 04:30:27;;;;;;;4.00;2.83;;;;;;;;;;5036327;28;20044;-82
2022/08/08 04:32:52;;;;;;;3.75;3.08;;;;;;;;;;5036995;28;20044;-82
2022/08/08 04:35:21;;;;;;;5.72;3.03;;;;;;;;;;5036586;28;20021;-82
2022/08/08 04:37:47;;;;;;;4.43;3.38;;;;;;;;;;5037569;28;20035;-81
2022/08/08 04:40:18;;;;;;;5.07;3.13;;;;;;;;;;5038655;28;20035;-82
2022/08/08 04:42:48;;;;;;;3.50;3.10;;;;;;;;;;5038841;28;20070;-82
2022/08/08 04:45:14;;;;;;;4.88;3.17;;;;;;;;;;5056566;28;20562;-82
2022/08/08 04:47:40;;;;;;;3.25;2.95;;;;;;;;;;5039521;28;20072;-82
2022/08/08 04:50:06;;;;;;;3.40;2.90;;;;;;;;;;5056686;28;20119;-82
2022/08/08 04:52:34;;;;;;;4.28;2.85;;;;;;;;;;5037188;28;20051;-82
2022/08/08 04:55:03;;;;;;;6.00;3.30;;;;;;;;;;5035813;28;20017;-82
2022/08/08 04:57:28;;;;;;;5.50;3.10;;;;;;;;;;5037093;28;20033;-82
2022/08/08 04:59:54;;;;;;;4.13;3.00;;;;;;;;;;5036743;28;20036;-82
2022/08/08 05:02:20;;;;;;;5.03;3.15;;;;;;;;;;5036868;28;20166;-82
2022/08/08 05:04:45;;;;;;;5.68;3.35;;;;;;;;;;5036698;28;20033;-83
2022/08/08 05:07:11;;;;;;;6.38;3.40;;;;;;;;;;5037333;28;20294;-82
2022/08/08 05:09:36;;;;;;;4.13;3.50;;;;;;;;;;5020097;28;20068;-82
2022/08/08 05:12:03;;;;;;;4.22;3.20;;;;;;;;;;5036756;28;20041;-82
2022/08/08 05:14:30;;;;;;;5.47;3.05;;;;;;;;;;5037007;28;20029;-82
2022/08/08 05:16:59;;;;;;;3.30;3.00;;;;;;;;;;5036679;28;20025;-82
2022/08/08 05:19:25;;;;;;;8.82;3.33;;;;;;;;;;5020719;28;20032;-81
2022/08/08 05:21:54;;;;;;;8.85;4.32;;;;;;;;;;5037029;28;20033;-81
2022/08/08 05:24:20;;;;;;;4.55;3.40;;;;;;;;;;5054125;28;20497;-81
2022/08/08 05:26:46;;;;;;;3.65;3.28;;;;;;;;;;5036733;28;20057;-80
2022/08/08 05:29:12;;;;;;;7.03;3.35;;;;;;;;;;5054805;28;20021;-81
2022/08/08 05:31:38;;;;;;;5.40;3.42;;;;;;;;;;5036385;28;20040;-80
2022/08/08 05:34:16;;;;;;;3.97;3.33;;;;;;;;;;5020102;28;20033;-81
2022/08/08 05:36:46;;;;;;;7.65;4.22;;;;;;;;;;5036672;28;20512;-81
2022/08/08 05:39:12;;;;;;;5.88;4.13;;;;;;;;;;5054376;28;20037;-80
2022/08/08 05:41:39;;;;;;;5.43;4.38;;;;;;;;;;5037019;28;20036;-82
2022/08/08 05:44:12;;;;;;;5.22;3.95;;;;;;;;;;5035730;28;20033;-81
2022/08/08 05:46:39;;;;;;;9.32;4.20;;;;;;;;;;5036815;28;20029;-81
2022/08/08 05:49:07;;;;;;;5.30;3.75;;;;;;;;;;5036751;28;20065;-81
2022/08/08 05:51:33;;;;;;;5.18;4.03;;;;;;;;;;5020398;28;20063;-81
2022/08/08 05:53:59;;;;;;;6.30;4.20;;;;;;;;;;5035679;28;20502;-81
2022/08/08 05:56:27;;;;;;;6.10;4.20;;;;;;;;;;5036803;28;20029;-80
2022/08/08 05:59:03;;;;;;;6.63;4.20;;;;;;;;;;5036169;28;20064;-80
2022/08/08 06:01:36;;;;;;;4.57;3.90;;;;;;;;;;5036351;28;20033;-81
2022/08/08 06:04:03;;;;;;;6.18;4.43;;;;;;;;;;5035722;28;20037;-81
2022/08/08 06:06:30;;;;;;;4.75;4.22;;;;;;;;;;5036317;28;20051;-81
2022/08/08 06:09:03;;;;;;;5.18;4.30;;;;;;;;;;5051788;28;20029;-81
2022/08/08 06:11:34;;;;;;;5.47;4.30;;;;;;;;;;5020757;28;20037;-81
2022/08/08 06:14:04;;;;;;;5.93;4.43;;;;;;;;;;5022974;28;20048;-81
2022/08/08 06:16:40;;;;;;;5.78;4.00;;;;;;;;;;5023649;28;20028;-82
2022/08/08 06:19:15;;;;;;;5.40;4.18;;;;;;;;;;5039951;28;20025;-82
2022/08/08 06:21:47;;;;;;;6.38;3.90;;;;;;;;;;5040572;28;20052;-81
2022/08/08 06:24:15;;;;;;;4.57;3.83;;;;;;;;;;5025780;28;20493;-82
2022/08/08 06:26:51;;;;;;;4.10;3.67;;;;;;;;;;5047722;28;20088;-81
2022/08/08 06:29:52;;;;;;;5.00;4.10;;;;;;;;;;5049319;28;20033;-81
2022/08/08 06:32:24;;;;;;;4.70;4.20;;;;;;;;;;5039102;28;20036;-81
2022/08/08 06:34:53;;;;;;;;;;;;;;;;;;5039564;28;20037;-81
2022/08/08 06:37:22;;;;;;;5.55;4.20;;;;;;;;;;5039684;28;19944;-81
2022/08/08 06:39:50;;;;;;;8.45;4.05;;;;;;;;;;5023259;28;20032;-81
2022/08/08 06:42:17;;;;;;;5.32;4.30;;;;;;;;;;5039258;28;20024;-82
2022/08/08 06:44:47;;;;;;;6.95;4.38;;;;;;;;;;5039230;28;20093;-81
2022/08/08 06:47:13;;;;;;;6.38;4.05;;;;;;;;;;5057519;28;20037;-82
2022/08/08 06:49:40;;;;;;;7.53;4.50;;;;;;;;;;5039886;28;20055;-81
2022/08/08 06:52:07;;;;;;;4.90;4.00;;;;;;;;;;5039781;28;20055;-81
2022/08/08 06:54:33;;;;;;;5.53;4.30;;;;;;;;;;5038714;28;20036;-82
2022/08/08 06:56:59;;;;;;;5.95;4.20;;;;;;;;;;5039752;28;20028;-82
2022/08/08 06:59:27;;;;;;;5.20;4.38;;;;;;;;;;5050330;28;20083;-81
2022/08/08 07:02:02;;;;;;;5.47;4.20;;;;;;;;;;5047383;28;20068;-81
2022/08/08 07:04:52;;;;;;;7.78;4.75;;;;;;;;;;5052839;28;20115;-85
2022/08/08 07:07:40;;;;;;;8.23;4.38;;;;;;;;;;5040957;28;20033;-83
2022/08/08 07:10:08;;;;;;;5.15;3.92;;;;;;;;;;5058080;28;20029;-81
2022/08/08 07:12:42;;;;;;;5.97;4.35;;;;;;;;;;5039488;28;20033;-82
2022/08/08 07:15:13;;;;;;;7.35;4.30;;;;;;;;;;5038312;28;20037;-80
2022/08/08 07:17:46;;;;;;;5.43;4.03;;;;;;;;;;5055585;28;20591;-82
2022/08/08 07:20:28;;;;;;;6.55;3.95;;;;;;;;;;5050632;28;20416;-83
2022/08/08 07:22:57;;;;;;;10.27;3.70;;;;;;;;;;5020833;28;20033;-82
2022/08/08 07:25:24;;;;;;;6.38;3.85;;;;;;;;;;5036978;28;20089;-81
2022/08/08 07:27:59;;;;;;;4.00;3.60;;;;;;;;;;5056046;28;20071;-81
2022/08/08 07:30:25;;;;;;;8.63;3.90;;;;;;;;;;5038459;28;20033;-81
2022/08/08 07:32:53;;;;;;;6.25;3.70;;;;;;;;;;5038231;28;20033;-82
2022/08/08 07:35:22;;;;;;;5.22;3.60;;;;;;;;;;5021703;28;20036;-82
2022/08/08 07:37:50;;;;;;;4.28;3.78;;;;;;;;;;5021958;28;20078;-82
2022/08/08 07:40:20;;;;;;;4.43;3.55;;;;;;;;;;5038056;28;20009;-81
2022/08/08 07:42:48;;;;;;;3.83;3.40;;;;;;;;;;5038649;28;20033;-80
2022/08/08 07:45:14;;;;;;;5.40;3.60;;;;;;;;;;5037698;28;20037;-82
2022/08/08 07:47:42;;;;;;;4.28;3.47;;;;;;;;;;5037547;28;20078;-81
2022/08/08 07:50:10;;;;;;;5.90;3.80;;;;;;;;;;5037976;28;20064;-81
2022/08/08 07:52:43;;;;;;;5.07;3.50;;;;;;;;;;5038430;28;20029;-82
2022/08/08 07:55:16;;;;;;;3.90;3.13;;;;;;;;;;5021213;28;20049;-82
2022/08/08 07:58:05;;;;;;;4.10;3.40;;;;;;;;;;5056756;28;20029;-84
2022/08/08 08:00:58;;;;;;;5.40;3.40;;;;;;;;;;5048055;28;20279;-82
2022/08/08 08:03:31;;;;;;;5.13;3.47;;;;;;;;;;5037566;28;20448;-82
2022/08/08 08:05:59;;;;;;;5.13;3.42;;;;;;;;;;5036937;28;20501;-81
2022/08/08 08:08:39;;;;;;;4.55;3.30;;;;;;;;;;5038804;28;20090;-83
2022/08/08 08:11:13;;;;;;;4.40;3.47;;;;;;;;;;5039529;28;20033;-82
2022/08/08 08:13:57;;;;;;;4.50;3.38;;;;;;;;;;5037833;28;20036;-81
2022/08/08 08:16:27;;;;;;;5.55;3.60;;;;;;;;;;5037503;28;20075;-81
2022/08/08 08:19:00;;;;;;;6.78;3.50;;;;;;;;;;5037845;28;20033;-81
2022/08/08 08:21:40;;;;;;;8.38;3.55;;;;;;;;;;5037590;28;20037;-81
2022/08/08 08:24:08;;;;;;;5.55;3.70;;;;;;;;;;5037006;28;20044;-81
2022/08/08 08:26:34;;;;;;;4.40;3.67;;;;;;;;;;5037466;28;20053;-82
2022/08/08 08:29:03;;;;;;;4.60;3.30;;;;;;;;;;5037352;28;20172;-81
2022/08/08 08:31:29;;;;;;;3.90;3.40;;;;;;;;;;5022026;28;20139;-81
2022/08/08 08:33:56;;;;;;;5.57;3.30;;;;;;;;;;5037029;28;20044;-80
2022/08/08 08:36:23;;;;;;;4.65;3.55;;;;;;;;;;5036902;28;20389;-81
2022/08/08 08:38:50;;;;;;;4.95;3.53;;;;;;;;;;5037095;28;20037;-81
2022/08/08 08:41:24;;;;;;;4.20;3.30;;;;;;;;;;5036786;28;20024;-81
2022/08/08 08:43:51;;;;;;;10.88;3.63;;;;;;;;;;5037118;28;20032;-80
2022/08/08 08:46:19;;;;;;;5.15;3.80;;;;;;;;;;5036308;28;20037;-81
2022/08/08 08:48:45;;;;;;;5.88;3.88;;;;;;;;;;5037527;28;20413;-81
2022/08/08 08:51:14;;;;;;;6.47;3.55;;;;;;;;;;5054868;28;20029;-82
2022/08/08 08:53:50;;;;;;;8.60;3.70;;;;;;;;;;5037033;28;20033;-80
2022/08/08 08:56:21;;;;;;;5.05;3.42;;;;;;;;;;5054448;28;20031;-81
2022/08/08 08:58:48;;;;;;;6.45;3.90;;;;;;;;;;5036886;28;20024;-83
2022/08/08 09:01:21;;;;;;;4.65;3.42;;;;;;;;;;5036993;28;20021;-81
2022/08/08 09:03:49;;;;;;;5.68;4.00;;;;;;;;;;5036983;28;20037;-82
2022/08/08 09:06:30;;;;;;;4.20;3.80;;;;;;;;;;5035915;28;20029;-82
2022/08/08 09:09:22;;;;;;;7.57;4.07;;;;;;;;;;5035794;28;20501;-83
2022/08/08 09:11:51;;;;;;;6.40;4.00;;;;;;;;;;5037006;28;20037;-82
2022/08/08 09:14:24;;;;;;;4.53;3.78;;;;;;;;;;5046466;28;20045;-81
2022/08/08 09:16:51;;;;;;;4.75;3.60;;;;;;;;;;5056985;28;20074;-82
2022/08/08 09:19:17;;;;;;;5.72;3.65;;;;;;;;;;5055600;28;20032;-82
2022/08/08 09:21:44;;;;;;;4.75;3.47;;;;;;;;;;5056145;28;20105;-84
2022/08/08 09:24:11;;;;;;;7.53;3.50;;;;;;;;;;5059748;28;20062;-82
2022/08/08 09:26:40;;;;;;;4.53;3.33;;;;;;;;;;5074456;28;20040;-82
2022/08/08 09:29:12;;;;;;;7.78;3.40;;;;;;;;;;5044913;28;20040;-82
2022/08/08 09:31:47;;;;;;;6.93;3.72;;;;;;;;;;5036792;28;20514;-82
2022/08/08 09:34:16;;;;;;;5.38;3.17;;;;;;;;;;5036812;28;20037;-83
2022/08/08 09:36:45;;;;;;;5.90;3.05;;;;;;;;;;5054608;28;20028;-83
2022/08/08 09:39:12;;;;;;;3.67;3.00;;;;;;;;;;5036871;28;20040;-83
2022/08/08 09:41:40;;;;;;;4.20;3.35;;;;;;;;;;5036461;28;20115;-82
2022/08/08 09:44:19;;;;;;;5.53;3.28;;;;;;;;;;5035563;28;20090;-82
2022/08/08 09:46:49;;;;;;;5.60;3.35;;;;;;;;;;5036709;28;20413;-82
2022/08/08 09:49:19;;;;;;;4.30;3.30;;;;;;;;;;5058745;28;20033;-83
2022/08/08 09:51:54;;;;;;;8.60;3.33;;;;;;;;;;5058230;28;20568;-83
2022/08/08 09:54:33;;;;;;;5.43;3.05;;;;;;;;;;5058452;28;20079;-83
2022/08/08 09:57:02;;;;;;;4.28;3.30;;;;;;;;;;5040773;28;20056;-82
2022/08/08 09:59:31;;;;;;;4.25;3.20;;;;;;;;;;5040294;28;20040;-83
2022/08/08 10:01:59;;;;;;;6.40;3.22;;;;;;;;;;5058477;28;20086;-83
2022/08/08 10:04:26;;;;;;;5.30;3.55;;;;;;;;;;5057405;28;20032;-83
2022/08/08 10:06:52;;;;;;;5.25;3.25;;;;;;;;;;5058237;28;20033;-83
2022/08/08 10:09:32;;;;;;;6.13;3.40;;;;;;;;;;5057187;28;20036;-82
2022/08/08 10:12:02;;;;;;;4.68;3.53;;;;;;;;;;5058214;28;20112;-83
2022/08/08 10:14:36;;;;;;;4.53;3.20;;;;;;;;;;5057197;28;20044;-83
2022/08/08 10:17:07;;;;;;;5.05;3.72;;;;;;;;;;5058074;28;20025;-83
2022/08/08 10:19:35;;;;;;;6.47;3.15;;;;;;;;;;5057438;28;20037;-83
2022/08/08 10:22:05;;;;;;;5.55;3.10;;;;;;;;;;5057703;28;20134;-83
2022/08/08 10:24:35;;;;;;;3.78;2.80;;;;;;;;;;5057425;28;20029;-82
2022/08/08 10:27:06;;;;;;;3.38;2.60;;;;;;;;;;5057891;28;20082;-83
2022/08/08 10:29:56;;;;;;;3.90;2.60;;;;;;;;;;5057828;28;20493;-83
2022/08/08 10:32:31;;;;;;;4.30;2.70;;;;;;;;;;5057771;28;20068;-83
2022/08/08 10:34:58;;;;;;;5.25;2.75;;;;;;;;;;5039608;28;20032;-83
2022/08/08 10:37:32;;;;;;;3.45;2.65;;;;;;;;;;5057689;28;20381;-83
2022/08/08 10:40:00;;;;;;;4.35;2.33;;;;;;;;;;5057493;28;20494;-83
2022/08/08 10:42:34;;;;;;;3.17;2.03;;;;;;;;;;5057850;28;20040;-83
2022/08/08 10:45:04;;;;;;;3.85;2.33;;;;;;;;;;5057181;28;20561;-83
2022/08/08 10:47:29;;;;;;;3.97;2.03;;;;;;;;;;5057658;28;20036;-83
2022/08/08 10:50:00;;;;;;;4.13;2.10;;;;;;;;;;5057375;28;20489;-83
2022/08/08 10:52:25;;;;;;;4.38;2.20;;;;;;;;;;5039435;28;20045;-83
2022/08/08 10:54:56;;;;;;;4.20;2.40;;;;;;;;;;5038632;28;20104;-83
2022/08/08 10:57:22;;;;;;;4.18;2.25;;;;;;;;;;5038731;28;20033;-84
2022/08/08 10:59:51;;;;;;;5.97;2.30;;;;;;;;;;5038010;28;20500;-84
2022/08/08 11:02:23;;;;;;;2.70;2.22;;;;;;;;;;5057509;28;20028;-83
2022/08/08 11:04:49;;;;;;;3.15;2.33;;;;;;;;;;5056303;28;20463;-83
2022/08/08 11:07:29;;;;;;;3.47;2.20;;;;;;;;;;5058698;28;20069;-84
2022/08/08 11:10:00;;;;;;;8.75;2.10;;;;;;;;;;5056354;28;20489;-84
2022/08/08 11:12:25;;;;;;;3.70;1.92;;;;;;;;;;5056546;28;20507;-83
2022/08/08 11:14:54;;;;;;;3.10;1.90;;;;;;;;;;5056347;28;20104;-83
2022/08/08 11:17:22;;;;;;;4.57;2.30;;;;;;;;;;5056991;28;20059;-84
2022/08/08 11:19:50;;;;;;;7.03;2.60;;;;;;;;;;5056798;28;20374;-84
2022/08/08 11:22:17;;;;;;;3.95;2.20;;;;;;;;;;5056447;28;20065;-84
2022/08/08 11:24:46;;;;;;;3.28;2.20;;;;;;;;;;5056405;28;20471;-83
2022/08/08 11:27:12;;;;;;;3.70;2.20;;;;;;;;;;5038344;28;20037;-84
2022/08/08 11:29:41;;;;;;;3.30;1.98;;;;;;;;;;5056357;28;20045;-84
2022/08/08 11:32:08;;;;;;;3.60;2.30;;;;;;;;;;5038766;28;20029;-84
2022/08/08 11:34:36;;;;;;;5.15;2.17;;;;;;;;;;5056052;28;20025;-84
2022/08/08 11:37:02;;;;;;;2.30;1.70;;;;;;;;;;5056380;28;20029;-83
2022/08/08 11:39:29;;;;;;;3.00;2.00;;;;;;;;;;5056539;28;20317;-84
2022/08/08 11:41:55;;;;;;;2.70;1.90;;;;;;;;;;5055731;28;20048;-83
2022/08/08 11:44:22;;;;;;;7.65;1.98;;;;;;;;;;5055707;28;20025;-84
2022/08/08 11:46:48;;;;;;;3.72;2.08;;;;;;;;;;5056542;28;20029;-84
2022/08/08 11:49:14;;;;;;;3.15;2.00;;;;;;;;;;5056823;28;20094;-84
2022/08/08 11:51:40;;;;;;;2.85;1.90;;;;;;;;;;5056528;28;20024;-84
2022/08/08 11:54:07;;;;;;;2.58;1.98;;;;;;;;;;5055728;28;20029;-83
2022/08/08 11:56:34;;;;;;;2.92;2.13;;;;;;;;;;5056070;28;20025;-83
2022/08/08 11:59:07;;;;;;;2.65;1.85;;;;;;;;;;5056988;28;20547;-83
2022/08/08 12:01:33;;;;;;;2.92;1.63;;;;;;;;;;5055933;28;20044;-83
2022/08/08 12:03:59;;;;;;;2.72;1.63;;;;;;;;;;5056103;28;20028;-83
2022/08/08 12:06:24;;;;;;;3.22;1.98;;;;;;;;;;5037735;28;20125;-84
2022/08/08 12:08:50;;;;;;;2.22;1.60;;;;;;;;;;5053395;28;20115;-84
2022/08/08 12:11:17;;;;;;;4.90;1.88;;;;;;;;;;5055729;28;20028;-84
2022/08/08 12:13:44;;;;;;;3.25;1.67;;;;;;;;;;5055958;28;20040;-84
2022/08/08 12:16:12;;;;;;;3.28;1.80;;;;;;;;;;5055236;28;20040;-84
2022/08/08 12:18:44;;;;;;;3.95;1.80;;;;;;;;;;5055584;28;20037;-84
2022/08/08 12:21:19;;;;;;;1.65;1.55;;;;;;;;;;5037496;28;20032;-84
2022/08/08 12:23:44;;;;;;;2.63;1.50;;;;;;;;;;5037334;28;20379;-84
2022/08/08 12:26:11;;;;;;;5.07;1.95;;;;;;;;;;5054988;28;20548;-84
2022/08/08 12:28:37;;;;;;;6.30;1.58;;;;;;;;;;5038315;28;20024;-84
2022/08/08 12:31:07;;;;;;;4.30;1.60;;;;;;;;;;5055727;28;20425;-84
2022/08/08 12:33:33;;;;;;;4.05;1.80;;;;;;;;;;5055977;28;20036;-85
2022/08/08 12:36:12;;;;;;;3.10;1.55;;;;;;;;;;5037244;28;20039;-84
2022/08/08 12:38:49;;;;;;;2.47;1.33;;;;;;;;;;5055174;28;20041;-84
2022/08/08 12:41:14;;;;;;;4.15;1.50;;;;;;;;;;5037754;28;20036;-84
2022/08/08 12:43:40;;;;;;;1.85;1.40;;;;;;;;;;5038028;28;20041;-84
2022/08/08 12:46:22;;;;;;;2.28;1.48;;;;;;;;;;5053437;28;20040;-84
2022/08/08 12:48:58;;;;;;;3.47;1.17;;;;;;;;;;5055316;28;20436;-83
2022/08/08 12:51:24;;;;;;;2.35;1.70;;;;;;;;;;5055081;28;20044;-84
2022/08/08 12:53:58;;;;;;;4.18;1.58;;;;;;;;;;5054723;28;20029;-83
2022/08/08 12:56:50;;;;;;;2.60;1.55;;;;;;;;;;5054350;28;20082;-84
2022/08/08 12:59:22;;;;;;;2.92;1.60;;;;;;;;;;5052100;28;20041;-84
2022/08/08 13:01:58;;;;;;;3.97;1.50;;;;;;;;;;5054686;28;20048;-83
2022/08/08 13:04:26;;;;;;;1.95;1.50;;;;;;;;;;5054651;28;20029;-84
2022/08/08 13:07:07;;;;;;;2.88;1.42;;;;;;;;;;5036189;28;20037;-84
2022/08/08 13:09:40;;;;;;;2.40;1.38;;;;;;;;;;5054530;28;20049;-85
2022/08/08 13:12:10;;;;;;;3.60;1.45;;;;;;;;;;5057594;28;20425;-87
2022/08/08 13:14:50;;;;;;;1.90;1.20;;;;;;;;;;5055172;28;20024;-83
2022/08/08 13:17:21;;;;;;;2.30;1.40;;;;;;;;;;5055288;28;20473;-84
2022/08/08 13:19:47;;;;;;;5.32;1.50;;;;;;;;;;5055564;28;20080;-84
2022/08/08 13:22:17;;;;;;;3.00;1.30;;;;;;;;;;5022320;28;20482;-84
2022/08/08 13:24:43;;;;;;;1.92;1.40;;;;;;;;;;5057809;28;20033;-84
2022/08/08 13:27:17;;;;;;;4.20;1.60;;;;;;;;;;5058745;28;20033;-84
2022/08/08 13:30:04;;;;;;;4.47;1.50;;;;;;;;;;5058586;28;20063;-84
2022/08/08 13:32:34;;;;;;;3.55;1.50;;;;;;;;;;5040941;28;20119;-82
2022/08/08 13:35:01;;;;;;;3.03;1.40;;;;;;;;;;5059180;28;20029;-83
2022/08/08 13:37:29;;;;;;;2.10;1.40;;;;;;;;;;5074848;28;20024;-84
2022/08/08 13:39:55;;;;;;;2.25;1.30;;;;;;;;;;5078329;28;20107;-84
2022/08/08 13:42:23;;;;;;;3.00;1.50;;;;;;;;;;5060397;28;20481;-84
2022/08/08 13:44:57;;;;;;;3.17;1.30;;;;;;;;;;5077073;28;20028;-84
2022/08/08 13:47:24;;;;;;;2.30;1.48;;;;;;;;;;5068691;28;20124;-84
2022/08/08 13:50:03;;;;;;;5.82;1.40;;;;;;;;;;5061640;28;20037;-83
2022/08/08 13:52:28;;;;;;;4.13;1.50;;;;;;;;;;5069408;28;20395;-84
2022/08/08 13:54:56;;;;;;;1.70;1.30;;;;;;;;;;5067957;28;20042;-84
2022/08/08 13:57:41;;;;;;;2.33;1.40;;;;;;;;;;5065798;28;20041;-84
2022/08/08 14:00:08;;;;;;;1.88;1.40;;;;;;;;;;5060694;28;20036;-83
2022/08/08 14:02:38;;;;;;;2.45;1.42;;;;;;;;;;5060678;28;20064;-84
2022/08/08 14:05:05;;;;;;;2.60;1.40;;;;;;;;;;5059596;28;20083;-84
2022/08/08 14:07:33;;;;;;;3.28;1.40;;;;;;;;;;5060811;28;20044;-84
2022/08/08 14:10:09;;;;;;;2.13;1.50;;;;;;;;;;5041290;28;20067;-83
2022/08/08 14:12:37;;;;;;;3.15;1.30;;;;;;;;;;5060693;28;20098;-83
2022/08/08 14:15:05;;;;;;;2.35;1.30;;;;;;;;;;5041564;28;20111;-84
2022/08/08 14:17:31;;;;;;;2.00;1.40;;;;;;;;;;5060112;28;20033;-84
2022/08/08 14:20:07;;;;;;;3.40;1.35;;;;;;;;;;5060642;28;20067;-85
2022/08/08 14:22:38;;;;;;;3.63;1.30;;;;;;;;;;5061014;28;20040;-84
2022/08/08 14:25:07;;;;;;;2.45;1.50;;;;;;;;;;5042574;28;20155;-84
2022/08/08 14:27:35;;;;;;;3.10;1.40;;;;;;;;;;5043031;28;20501;-84
2022/08/08 14:30:10;;;;;;;2.47;1.48;;;;;;;;;;5060453;28;20039;-84
2022/08/08 14:32:43;;;;;;;5.40;1.60;;;;;;;;;;5062087;28;20680;-83
2022/08/08 14:35:09;;;;;;;;;;;;;;;;;;5060751;28;20036;-82
2022/08/08 14:37:45;;;;;;;2.72;1.40;;;;;;;;;;5060685;28;19983;-84
2022/08/08 14:40:18;;;;;;;3.75;1.50;;;;;;;;;;5060475;28;20032;-84
2022/08/08 14:42:45;;;;;;;;;;;;;;;;;;5060597;28;20094;-81
2022/08/08 14:45:12;;;;;;;4.70;1.40;;;;;;;;;;5061082;28;20006;-85
2022/08/08 14:47:59;;;;;;;3.97;1.30;;;;;;;;;;5025173;28;20029;-84
2022/08/08 14:50:29;;;;;;;1.77;1.40;;;;;;;;;;5066726;28;20028;-84
2022/08/08 14:53:02;;;;;;;2.08;1.30;;;;;;;;;;5067273;28;20036;-83
2022/08/08 14:55:29;;;;;;;2.03;1.40;;;;;;;;;;5039334;28;20031;-86
2022/08/08 14:57:56;;;;;;;4.22;1.40;;;;;;;;;;5058517;28;20542;-84
2022/08/08 15:00:22;;;;;;;2.00;1.42;;;;;;;;;;5070437;28;20033;-84
2022/08/08 15:02:50;;;;;;;2.85;1.30;;;;;;;;;;5070806;28;20033;-83
2022/08/08 15:05:20;;;;;;;3.67;1.33;;;;;;;;;;5068654;28;20045;-83
2022/08/08 15:07:47;;;;;;;2.40;1.40;;;;;;;;;;5045328;28;20091;-82
2022/08/08 15:10:15;;;;;;;6.25;1.50;;;;;;;;;;5066060;28;20485;-83
2022/08/08 15:12:45;;;;;;;2.35;1.30;;;;;;;;;;5070257;28;20088;-83
2022/08/08 15:15:12;;;;;;;2.90;1.30;;;;;;;;;;5068216;28;20071;-83
2022/08/08 15:17:41;;;;;;;4.78;1.40;;;;;;;;;;5063441;28;20090;-83
2022/08/08 15:20:10;;;;;;;2.20;1.38;;;;;;;;;;5059373;28;20120;-84
2022/08/08 15:22:35;;;;;;;2.65;1.20;;;;;;;;;;5059075;28;20033;-81
2022/08/08 15:25:01;;;;;;;3.83;1.40;;;;;;;;;;5039344;28;20055;-83